OE7XEI-13 Weather Reports


Display with metric or nautical units.
time (UTC)temp
F
wind
direction
speed
MPH
gust
MPH
rain 1hr
in
rain 24hr
in
rain mn
in
humidity
%
barometer
mb
20240522025636 53 45 0.0 0.0 0.00 0.00 0.00 95 1013.4
20240522024134 53 45 0.0 0.0 0.00 0.00 0.00 95 1013.4
20240522022635 53 45 0.0 0.0 0.00 0.00 0.00 95 1013.1
20240522021531 53 45 0.0 0.0 0.00 0.00 0.00 95 1013.3
20240522021134 53 45 0.0 0.0 0.00 0.00 0.00 95 1013.3
20240522015633 53 45 0.0 0.0 0.00 0.00 0.00 95 1013.3
20240522014132 53 45 0.0 0.0 0.00 0.00 0.00 95 1013.3
20240522012632 53 45 0.0 0.0 0.00 0.00 0.00 95 1013.0
20240522011131 53 45 0.0 0.0 0.00 0.00 0.00 94 1013.1
20240522005630 53 45 0.0 0.0 0.00 0.00 0.00 94 1013.1
20240522004527 54 45 0.0 0.0 0.00 0.00 0.00 94 1013.3
20240522004131 54 90 0.0 0.0 0.00 0.00 0.00 94 1013.3
20240522002629 54 90 0.0 0.0 0.00 0.00 0.00 94 1013.4
20240522001527 54 90 0.0 0.0 0.00 0.00 0.00 94 1013.4
20240522001131 54 90 0.0 0.0 0.00 0.00 0.00 94 1013.3
20240522000027 54 135 0.0 0.0 0.00 0.00 0.00 94 1013.3
20240521235631 54 135 0.0 0.0 0.00 0.00 0.00 94 1013.3
20240521234527 53 90 0.0 0.0 0.00 0.00 0.00 94 1013.1
20240521234131 54 90 0.0 0.0 0.00 0.00 0.00 94 1013.1
20240521233026 54 90 0.0 0.0 0.00 0.00 0.00 94 1013.0
20240521232631 54 135 0.0 0.0 0.00 0.00 0.00 94 1013.0
20240521231528 53 135 0.0 0.0 0.00 0.00 0.00 94 1013.1
20240521231132 54 135 0.0 0.0 0.00 0.00 0.00 94 1013.3
20240521225631 54 135 0.0 0.0 0.00 0.00 0.00 94 1013.3
20240521224526 54 135 0.0 0.0 0.00 0.00 0.00 94 1013.3
20240521224131 54 135 0.0 0.0 0.00 0.00 0.00 94 1013.1
20240521223027 54 135 0.0 0.0 0.00 0.00 0.00 94 1013.0
20240521222630 54 135 0.0 0.0 0.00 0.00 0.00 94 1013.0
20240521221131 54 135 0.0 0.0 0.00 0.00 0.00 93 1012.8
20240521220027 54 135 0.0 0.0 0.00 0.00 0.00 93 1012.8
20240521215631 54 135 0.0 0.0 0.00 0.00 0.00 92 1012.8
20240521214527 54 135 0.0 0.0 0.00 0.00 0.00 93 1012.8
20240521214131 54 135 0.0 0.0 0.00 0.00 0.00 93 1012.8
20240521212630 54 135 0.0 0.0 0.00 0.00 0.00 92 1012.8
20240521211131 54 135 0.0 0.0 0.00 0.00 0.00 92 1012.7
20240521210027 55 135 0.0 0.0 0.00 0.00 0.00 92 1012.5
20240521205630 54 135 0.0 0.0 0.00 0.00 0.00 92 1012.6
20240521204527 54 135 0.0 0.0 0.00 0.00 0.00 92 1012.5
20240521204130 54 135 0.0 0.0 0.00 0.00 0.00 92 1012.5
20240521202631 54 135 0.0 0.0 0.00 0.00 0.00 92 1012.4
20240521201526 54 135 0.0 0.0 0.00 0.00 0.00 92 1012.2
20240521201130 55 135 0.0 0.0 0.00 0.00 0.00 92 1012.2
20240521195631 55 135 0.0 0.0 0.00 0.00 0.00 92 1012.1
20240521194527 55 135 0.0 0.0 0.00 0.00 0.00 92 1012.0
20240521194132 55 135 0.0 0.0 0.00 0.00 0.00 92 1011.9
20240521193027 55 135 0.0 0.0 0.00 0.00 0.00 92 1011.8
20240521192631 54 135 0.0 0.0 0.00 0.00 0.00 91 1011.8
20240521191530 55 135 0.0 0.0 0.00 0.00 0.00 91 1011.6
20240521191131 55 135 0.0 0.0 0.00 0.00 0.00 91 1011.5
20240521185634 55 45 0.0 0.0 0.00 0.00 0.00 89 1011.3
20240521184529 55 45 1.0 1.0 0.00 0.00 0.00 89 1011.2
20240521184134 55 45 0.0 0.0 0.00 0.00 0.00 89 1011.2
20240521182633 55 135 0.0 0.0 0.00 0.00 0.00 89 1011.1
20240521181529 55 135 0.0 0.0 0.00 0.00 0.00 89 1011.2
20240521181134 55 135 0.0 0.0 0.00 0.00 0.00 88 1011.1
20240521175633 55 113 0.0 0.0 0.00 0.00 0.00 88 1011.1
20240521174528 55 180 1.0 1.0 0.00 0.00 0.00 88 1011.0
20240521174133 55 338 1.0 1.0 0.00 0.00 0.00 88 1011.0
20240521172632 55 248 0.0 0.0 0.00 0.00 0.00 88 1010.8
20240521171527 55 45 2.0 3.0 0.00 0.00 0.00 88 1010.8
20240521171131 55 270 1.0 2.0 0.00 0.00 0.00 88 1010.7
20240521165634 54 293 5.0 5.0 0.00 0.00 0.00 88 1010.6
20240521164134 55 270 3.0 5.0 0.00 0.00 0.00 87 1010.5
20240521162633 55 293 3.0 6.0 0.00 0.00 0.00 87 1010.3
20240521161530 55 248 3.0 5.0 0.00 0.00 0.00 88 1010.0
20240521161133 56 270 3.0 3.0 0.00 0.00 0.00 87 1009.9
20240521160028 55 248 1.0 2.0 0.00 0.00 0.00 87 1009.8
20240521155632 56 270 0.0 0.0 0.00 0.00 0.00 88 1009.8
20240521154528 56 248 1.0 2.0 0.00 0.00 0.00 88 1009.7
20240521154131 56 293 3.0 3.0 0.00 0.00 0.00 87 1009.6
20240521152631 56 293 3.0 5.0 0.00 0.00 0.00 88 1009.5
20240521151528 56 315 3.0 5.0 0.00 0.00 0.00 87 1009.4
20240521151132 56 270 1.0 7.0 0.00 0.00 0.00 87 1009.3
20240521145635 56 270 3.0 3.0 0.00 0.00 0.00 86 1009.3
20240521144531 56 270 1.0 3.0 0.00 0.00 0.00 87 1009.1
20240521144134 56 270 5.0 6.0 0.00 0.00 0.00 86 1009.1
20240521142633 57 293 3.0 5.0 0.00 0.00 0.00 86 1008.9
20240521141529 57 270 6.0 8.0 0.00 0.00 0.00 86 1008.8
20240521141132 57 270 2.0 2.0 0.00 0.00 0.00 86 1008.8
20240521140029 57 293 6.0 7.0 0.00 0.00 0.00 85 1008.7
20240521135633 58 270 5.0 7.0 0.00 0.00 0.00 85 1008.5
20240521134132 58 270 6.0 8.0 0.00 0.00 0.00 83 1008.4
20240521132632 59 270 7.0 12.0 0.00 0.00 0.00 82 1008.3
20240521131132 60 270 5.0 5.0 0.00 0.00 0.00 83 1008.1
20240521130026 61 270 7.0 8.0 0.00 0.00 0.00 81 1008.1
20240521125631 61 270 5.0 7.0 0.00 0.00 0.00 80 1008.1
20240521124526 62 270 8.0 9.0 0.00 0.00 0.00 77 1007.9
20240521124131 63 248 3.0 5.0 0.00 0.00 0.00 75 1007.8
20240521122631 63 270 5.0 9.0 0.00 0.00 0.00 73 1007.7
20240521121131 64 270 8.0 9.0 0.00 0.00 0.00 69 1007.6
20240521115631 66 270 5.0 7.0 0.00 0.00 0.00 64 1007.5
20240521114526 66 270 5.0 7.0 0.00 0.00 0.00 62 1007.5
20240521114131 65 315 8.0 9.0 0.00 0.00 0.00 61 1007.5
20240521113027 66 270 10.0 14.0 0.00 0.00 0.00 60 1007.4
20240521112631 67 270 10.0 13.0 0.00 0.00 0.00 59 1007.4
20240521111527 67 293 6.0 6.0 0.00 0.00 0.00 59 1007.4
20240521111132 67 270 6.0 7.0 0.00 0.00 0.00 59 1007.5
20240521105632 67 270 6.0 7.0 0.00 0.00 0.00 57 1007.5
20240521104527 68 270 6.0 13.0 0.00 0.00 0.00 55 1007.4
20240521104130 69 248 6.0 9.0 0.00 0.00 0.00 54 1007.4
20240521103027 69 225 7.0 9.0 0.00 0.00 0.00 54 1007.4
20240521102631 68 203 5.0 6.0 0.00 0.00 0.00 53 1007.3
20240521101131 69 293 5.0 6.0 0.00 0.00 0.00 52 1007.4
20240521095631 68 270 3.0 8.0 0.00 0.00 0.00 56 1007.4
20240521094130 67 293 6.0 9.0 0.00 0.00 0.00 58 1007.5
20240521092631 66 315 6.0 6.0 0.00 0.00 0.00 60 1007.5
20240521091528 66 270 6.0 8.0 0.00 0.00 0.00 59 1007.5
20240521091132 66 248 3.0 7.0 0.00 0.00 0.00 59 1007.5
20240521085631 65 293 3.0 8.0 0.00 0.00 0.00 60 1007.5
20240521084527 65 270 3.0 6.0 0.00 0.00 0.00 61 1007.5
20240521084131 65 293 5.0 7.0 0.00 0.00 0.00 61 1007.5
20240521082631 65 315 5.0 6.0 0.00 0.00 0.00 63 1007.6
20240521081528 64 270 6.0 6.0 0.00 0.00 0.00 63 1007.6
20240521081131 64 270 7.0 12.0 0.00 0.00 0.00 63 1007.7
20240521080026 64 270 3.0 8.0 0.00 0.00 0.00 61 1007.7
20240521075631 64 270 5.0 6.0 0.00 0.00 0.00 65 1007.7
20240521074527 63 293 3.0 7.0 0.00 0.00 0.00 67 1007.6
20240521074131 63 315 5.0 8.0 0.00 0.00 0.00 69 1007.6
20240521072632 63 293 2.0 5.0 0.00 0.00 0.00 69 1007.7
20240521071526 62 293 3.0 7.0 0.00 0.00 0.00 70 1007.8
20240521071132 63 293 3.0 7.0 0.00 0.00 0.00 70 1007.9
20240521065633 63 248 6.0 9.0 0.00 0.00 0.00 72 1008.0
20240521064531 62 248 7.0 9.0 0.00 0.00 0.00 73 1008.0
20240521064134 62 248 5.0 8.0 0.00 0.00 0.00 74 1008.0
20240521062633 61 293 3.0 6.0 0.00 0.00 0.00 76 1008.1
20240521061528 61 248 5.0 9.0 0.00 0.00 0.00 77 1008.1
20240521061133 60 270 3.0 8.0 0.00 0.00 0.00 76 1008.0
20240521055633 61 270 3.0 3.0 0.00 0.00 0.00 76 1008.0
20240521054528 60 270 6.0 9.0 0.00 0.00 0.00 76 1007.9
20240521054133 60 270 3.0 6.0 0.00 0.00 0.00 76 1008.0
20240521053027 60 248 2.0 2.0 0.00 0.00 0.00 77 1008.0
20240521052631 60 270 7.0 8.0 0.00 0.00 0.00 76 1008.0
20240521051527 60 248 2.0 5.0 0.00 0.00 0.00 78 1008.0
20240521051131 60 270 3.0 7.0 0.00 0.00 0.00 78 1008.0
20240521045634 60 158 0.0 0.0 0.00 0.00 0.00 77 1007.9
20240521044133 60 158 0.0 0.0 0.00 0.00 0.00 77 1007.9
20240521043029 60 180 1.0 6.0 0.00 0.00 0.00 77 1007.8
20240521042634 60 180 2.0 8.0 0.00 0.00 0.00 77 1007.9
20240521041529 60 270 0.0 0.0 0.00 0.00 0.00 76 1007.8
20240521041133 60 270 0.0 0.0 0.00 0.00 0.00 76 1007.9
20240521035632 60 248 2.0 7.0 0.00 0.00 0.00 76 1008.0
20240521034529 60 225 1.0 5.0 0.00 0.00 0.00 76 1007.9
20240521034132 59 248 1.0 1.0 0.00 0.00 0.00 76 1008.0
20240521032632 60 225 1.0 2.0 0.00 0.00 0.00 77 1008.0
20240521031131 60 270 3.0 5.0 0.00 0.00 0.00 76 1008.1
20240521030030 60 225 3.0 3.0 0.00 0.00 0.00 78 1008.2